UAL688 KJAC-KDEN
Flight info
| Callsign | UAL688 |
|---|---|
| Flight time | N/A |
| Altitude | 37000 |
| Route | KICNE TOFUU FLATI5 |
| Aircraft | A320/M-SDE3FGHIRWY/LB1 |
Departure
| Time | 2026-04-30 22:51 |
|---|---|
| Airport | Jackson Hole Airport (KJAC) |
Arrival
| Time | N/A |
|---|---|
| Airport | Denver International Airport (KDEN) |
| Time | Latitude | Longitude | Altitude | Speed | Heading |
|---|---|---|---|---|---|
| 2026-04-30 22:14 | 43.60253 | -110.73764 | 6425 ft | 0 kts | 199° |
| 2026-04-30 22:41 | 43.60267 | -110.73719 | 6426 ft | 0 kts | 287° |
| 2026-04-30 22:44 | 43.60267 | -110.73720 | 6426 ft | 0 kts | 287° |
| 2026-04-30 22:45 | 43.60267 | -110.73721 | 6426 ft | 0 kts | 287° |
| 2026-04-30 22:47 | 43.60267 | -110.73720 | 6426 ft | 0 kts | 287° |
| 2026-04-30 22:48 | 43.60267 | -110.73721 | 6426 ft | 0 kts | 287° |
| 2026-04-30 22:49 | 43.60267 | -110.73720 | 6426 ft | 0 kts | 287° |
| 2026-04-30 22:50 | 43.59947 | -110.74162 | 6417 ft | 0 kts | 19° |
| 2026-04-30 22:51 | 43.60690 | -110.73798 | 6439 ft | 128 kts | 19° |
| 2026-04-30 22:51 | 43.62583 | -110.72853 | 7614 ft | 150 kts | 18° |
| 2026-04-30 22:52 | 43.63591 | -110.72368 | 8235 ft | 155 kts | 19° |
| 2026-04-30 22:52 | 43.65571 | -110.73401 | 8785 ft | 195 kts | 291° |
| 2026-04-30 22:53 | 43.64744 | -110.77273 | 9119 ft | 258 kts | 220° |
| 2026-04-30 22:53 | 43.61214 | -110.79535 | 10083 ft | 298 kts | 198° |
| 2026-04-30 22:53 | 43.59153 | -110.80391 | 10493 ft | 321 kts | 196° |
| 2026-04-30 22:54 | 43.54709 | -110.82279 | 11662 ft | 342 kts | 198° |
| 2026-04-30 22:55 | 43.47910 | -110.85609 | 13983 ft | 352 kts | 200° |
| 2026-04-30 22:55 | 43.43272 | -110.87991 | 15358 ft | 359 kts | 200° |
| 2026-04-30 22:56 | 43.38530 | -110.90405 | 16666 ft | 368 kts | 200° |
| 2026-04-30 22:56 | 43.31228 | -110.94104 | 18688 ft | 379 kts | 200° |
| 2026-04-30 22:57 | 43.26111 | -110.95918 | 19885 ft | 386 kts | 180° |
| 2026-04-30 22:57 | 43.21011 | -110.93810 | 21035 ft | 391 kts | 144° |
| 2026-04-30 22:58 | 43.17585 | -110.88118 | 22194 ft | 393 kts | 116° |
| 2026-04-30 22:59 | 43.13604 | -110.78133 | 23919 ft | 403 kts | 117° |
| 2026-04-30 22:59 | 43.09480 | -110.67921 | 25300 ft | 414 kts | 117° |